sensor_id;sensor_type;location;lat;lon;timestamp;P1;durP1;ratioP1;P2;durP2;ratioP2
13672;SDS011;6909;52.202;9.876;2023-04-07T00:00:50;2.53;;;2.07;;
13672;SDS011;6909;52.202;9.876;2023-04-07T00:03:16;3.03;;;2.07;;
13672;SDS011;6909;52.202;9.876;2023-04-07T00:05:44;2.90;;;2.53;;
13672;SDS011;6909;52.202;9.876;2023-04-07T00:08:11;3.63;;;2.47;;
13672;SDS011;6909;52.202;9.876;2023-04-07T00:10:38;3.50;;;2.63;;
13672;SDS011;6909;52.202;9.876;2023-04-07T00:13:05;4.07;;;2.40;;
13672;SDS011;6909;52.202;9.876;2023-04-07T00:15:31;3.53;;;2.17;;
13672;SDS011;6909;52.202;9.876;2023-04-07T00:17:58;2.43;;;2.10;;
13672;SDS011;6909;52.202;9.876;2023-04-07T00:20:25;4.17;;;2.37;;
13672;SDS011;6909;52.202;9.876;2023-04-07T00:22:53;2.57;;;2.00;;
13672;SDS011;6909;52.202;9.876;2023-04-07T00:25:19;3.80;;;2.60;;
13672;SDS011;6909;52.202;9.876;2023-04-07T00:27:46;2.83;;;2.33;;
13672;SDS011;6909;52.202;9.876;2023-04-07T00:30:13;2.97;;;2.30;;
13672;SDS011;6909;52.202;9.876;2023-04-07T00:32:40;4.17;;;2.23;;
13672;SDS011;6909;52.202;9.876;2023-04-07T00:35:07;4.10;;;2.50;;
13672;SDS011;6909;52.202;9.876;2023-04-07T00:37:34;3.60;;;2.27;;
13672;SDS011;6909;52.202;9.876;2023-04-07T00:40:02;4.93;;;2.70;;
13672;SDS011;6909;52.202;9.876;2023-04-07T00:42:29;2.43;;;1.97;;
13672;SDS011;6909;52.202;9.876;2023-04-07T00:44:58;1.67;;;1.30;;
13672;SDS011;6909;52.202;9.876;2023-04-07T00:47:24;2.23;;;1.90;;
13672;SDS011;6909;52.202;9.876;2023-04-07T00:49:51;2.00;;;1.90;;
13672;SDS011;6909;52.202;9.876;2023-04-07T00:52:18;4.80;;;2.27;;
13672;SDS011;6909;52.202;9.876;2023-04-07T00:54:51;5.43;;;2.03;;
13672;SDS011;6909;52.202;9.876;2023-04-07T00:57:20;3.30;;;1.97;;
13672;SDS011;6909;52.202;9.876;2023-04-07T00:59:47;2.10;;;1.90;;
13672;SDS011;6909;52.202;9.876;2023-04-07T01:02:15;3.00;;;2.03;;
13672;SDS011;6909;52.202;9.876;2023-04-07T01:04:46;3.33;;;2.70;;
13672;SDS011;6909;52.202;9.876;2023-04-07T01:07:17;6.50;;;2.87;;
13672;SDS011;6909;52.202;9.876;2023-04-07T01:09:51;2.10;;;1.90;;
13672;SDS011;6909;52.202;9.876;2023-04-07T01:12:27;2.83;;;2.10;;
13672;SDS011;6909;52.202;9.876;2023-04-07T01:15:03;3.17;;;2.63;;
13672;SDS011;6909;52.202;9.876;2023-04-07T01:17:33;2.07;;;1.77;;
13672;SDS011;6909;52.202;9.876;2023-04-07T01:20:02;1.97;;;1.77;;
13672;SDS011;6909;52.202;9.876;2023-04-07T01:22:33;3.87;;;2.67;;
13672;SDS011;6909;52.202;9.876;2023-04-07T01:25:09;2.30;;;2.10;;
13672;SDS011;6909;52.202;9.876;2023-04-07T01:27:53;2.20;;;1.83;;
13672;SDS011;6909;52.202;9.876;2023-04-07T01:30:27;3.13;;;1.90;;
13672;SDS011;6909;52.202;9.876;2023-04-07T01:32:57;3.73;;;2.83;;
13672;SDS011;6909;52.202;9.876;2023-04-07T01:35:25;3.80;;;1.67;;
13672;SDS011;6909;52.202;9.876;2023-04-07T01:37:54;3.53;;;1.90;;
13672;SDS011;6909;52.202;9.876;2023-04-07T01:40:21;3.00;;;2.10;;
13672;SDS011;6909;52.202;9.876;2023-04-07T01:42:50;3.70;;;1.90;;
13672;SDS011;6909;52.202;9.876;2023-04-07T01:45:18;1.93;;;1.53;;
13672;SDS011;6909;52.202;9.876;2023-04-07T01:47:47;2.23;;;1.67;;
13672;SDS011;6909;52.202;9.876;2023-04-07T01:50:15;1.73;;;1.63;;
13672;SDS011;6909;52.202;9.876;2023-04-07T01:52:42;2.60;;;2.23;;
13672;SDS011;6909;52.202;9.876;2023-04-07T01:55:09;2.43;;;1.33;;
13672;SDS011;6909;52.202;9.876;2023-04-07T01:57:36;3.07;;;1.87;;
13672;SDS011;6909;52.202;9.876;2023-04-07T02:00:03;2.33;;;1.93;;
13672;SDS011;6909;52.202;9.876;2023-04-07T02:02:31;2.90;;;2.30;;
13672;SDS011;6909;52.202;9.876;2023-04-07T02:05:03;3.30;;;2.33;;
13672;SDS011;6909;52.202;9.876;2023-04-07T02:07:34;3.73;;;2.10;;
13672;SDS011;6909;52.202;9.876;2023-04-07T02:10:09;3.53;;;2.57;;
13672;SDS011;6909;52.202;9.876;2023-04-07T02:12:38;2.97;;;2.60;;
13672;SDS011;6909;52.202;9.876;2023-04-07T02:15:07;15.23;;;3.13;;
13672;SDS011;6909;52.202;9.876;2023-04-07T02:17:38;4.23;;;3.10;;
13672;SDS011;6909;52.202;9.876;2023-04-07T02:20:08;2.83;;;2.50;;
13672;SDS011;6909;52.202;9.876;2023-04-07T02:22:37;2.67;;;1.70;;
13672;SDS011;6909;52.202;9.876;2023-04-07T02:25:19;1.00;;;1.00;;
13672;SDS011;6909;52.202;9.876;2023-04-07T02:27:49;2.17;;;1.90;;
13672;SDS011;6909;52.202;9.876;2023-04-07T02:30:16;3.43;;;1.77;;
13672;SDS011;6909;52.202;9.876;2023-04-07T02:32:43;1.90;;;1.73;;
13672;SDS011;6909;52.202;9.876;2023-04-07T02:35:11;2.33;;;1.67;;
13672;SDS011;6909;52.202;9.876;2023-04-07T02:37:40;3.83;;;2.20;;
13672;SDS011;6909;52.202;9.876;2023-04-07T02:40:07;3.93;;;3.00;;
13672;SDS011;6909;52.202;9.876;2023-04-07T02:42:34;2.37;;;1.80;;
13672;SDS011;6909;52.202;9.876;2023-04-07T02:45:01;3.60;;;2.27;;
13672;SDS011;6909;52.202;9.876;2023-04-07T02:47:28;2.47;;;2.17;;
13672;SDS011;6909;52.202;9.876;2023-04-07T02:49:55;3.60;;;2.23;;
13672;SDS011;6909;52.202;9.876;2023-04-07T02:52:23;1.57;;;1.47;;
13672;SDS011;6909;52.202;9.876;2023-04-07T02:54:49;2.23;;;1.83;;
13672;SDS011;6909;52.202;9.876;2023-04-07T02:57:16;2.27;;;1.70;;
13672;SDS011;6909;52.202;9.876;2023-04-07T02:59:43;2.27;;;1.53;;
13672;SDS011;6909;52.202;9.876;2023-04-07T03:02:10;2.33;;;1.80;;
13672;SDS011;6909;52.202;9.876;2023-04-07T03:04:36;2.47;;;2.07;;
13672;SDS011;6909;52.202;9.876;2023-04-07T03:07:03;3.17;;;2.87;;
13672;SDS011;6909;52.202;9.876;2023-04-07T03:09:31;2.50;;;1.87;;
13672;SDS011;6909;52.202;9.876;2023-04-07T03:11:58;2.10;;;1.83;;
13672;SDS011;6909;52.202;9.876;2023-04-07T03:14:25;3.03;;;2.30;;
13672;SDS011;6909;52.202;9.876;2023-04-07T03:16:52;3.13;;;2.30;;
13672;SDS011;6909;52.202;9.876;2023-04-07T03:19:20;3.43;;;1.90;;
13672;SDS011;6909;52.202;9.876;2023-04-07T03:21:47;3.53;;;2.67;;
13672;SDS011;6909;52.202;9.876;2023-04-07T03:24:13;2.87;;;2.57;;
13672;SDS011;6909;52.202;9.876;2023-04-07T03:26:41;2.27;;;2.07;;
13672;SDS011;6909;52.202;9.876;2023-04-07T03:29:08;2.80;;;2.07;;
13672;SDS011;6909;52.202;9.876;2023-04-07T03:31:34;2.00;;;1.80;;
13672;SDS011;6909;52.202;9.876;2023-04-07T03:34:02;2.47;;;2.07;;
13672;SDS011;6909;52.202;9.876;2023-04-07T03:36:28;2.63;;;2.13;;
13672;SDS011;6909;52.202;9.876;2023-04-07T03:38:55;3.50;;;2.40;;
13672;SDS011;6909;52.202;9.876;2023-04-07T03:41:22;3.23;;;2.23;;
13672;SDS011;6909;52.202;9.876;2023-04-07T03:43:50;2.47;;;2.27;;
13672;SDS011;6909;52.202;9.876;2023-04-07T03:46:17;2.43;;;2.23;;
13672;SDS011;6909;52.202;9.876;2023-04-07T03:48:45;2.90;;;2.20;;
13672;SDS011;6909;52.202;9.876;2023-04-07T03:51:11;2.87;;;2.33;;
13672;SDS011;6909;52.202;9.876;2023-04-07T03:53:38;3.60;;;2.53;;
13672;SDS011;6909;52.202;9.876;2023-04-07T03:56:05;3.50;;;2.30;;
13672;SDS011;6909;52.202;9.876;2023-04-07T03:58:32;2.23;;;1.93;;
13672;SDS011;6909;52.202;9.876;2023-04-07T04:01:00;3.57;;;2.70;;
13672;SDS011;6909;52.202;9.876;2023-04-07T04:03:27;3.67;;;2.57;;
13672;SDS011;6909;52.202;9.876;2023-04-07T04:05:54;3.10;;;2.40;;
13672;SDS011;6909;52.202;9.876;2023-04-07T04:08:20;3.27;;;2.53;;
13672;SDS011;6909;52.202;9.876;2023-04-07T04:10:47;5.47;;;2.77;;
13672;SDS011;6909;52.202;9.876;2023-04-07T04:13:14;3.77;;;2.53;;
13672;SDS011;6909;52.202;9.876;2023-04-07T04:15:40;2.20;;;1.93;;
13672;SDS011;6909;52.202;9.876;2023-04-07T04:18:08;3.40;;;3.07;;
13672;SDS011;6909;52.202;9.876;2023-04-07T04:20:35;2.23;;;2.03;;
13672;SDS011;6909;52.202;9.876;2023-04-07T04:23:02;2.40;;;2.20;;
13672;SDS011;6909;52.202;9.876;2023-04-07T04:25:28;2.60;;;2.00;;
13672;SDS011;6909;52.202;9.876;2023-04-07T04:27:55;8.10;;;2.93;;
13672;SDS011;6909;52.202;9.876;2023-04-07T04:30:22;2.20;;;1.93;;
13672;SDS011;6909;52.202;9.876;2023-04-07T04:32:48;3.10;;;2.83;;
13672;SDS011;6909;52.202;9.876;2023-04-07T04:35:16;4.77;;;3.33;;
13672;SDS011;6909;52.202;9.876;2023-04-07T04:37:43;3.40;;;2.40;;
13672;SDS011;6909;52.202;9.876;2023-04-07T04:40:10;5.77;;;3.43;;
13672;SDS011;6909;52.202;9.876;2023-04-07T04:42:38;3.53;;;3.23;;
13672;SDS011;6909;52.202;9.876;2023-04-07T04:45:05;4.43;;;2.77;;
13672;SDS011;6909;52.202;9.876;2023-04-07T04:47:33;4.07;;;3.27;;
13672;SDS011;6909;52.202;9.876;2023-04-07T04:49:59;6.17;;;3.40;;
13672;SDS011;6909;52.202;9.876;2023-04-07T04:52:27;4.50;;;2.90;;
13672;SDS011;6909;52.202;9.876;2023-04-07T04:54:55;4.33;;;2.80;;
13672;SDS011;6909;52.202;9.876;2023-04-07T04:57:22;3.80;;;3.50;;
13672;SDS011;6909;52.202;9.876;2023-04-07T04:59:48;4.93;;;3.07;;
13672;SDS011;6909;52.202;9.876;2023-04-07T05:02:15;5.57;;;3.73;;
13672;SDS011;6909;52.202;9.876;2023-04-07T05:04:42;5.50;;;3.10;;
13672;SDS011;6909;52.202;9.876;2023-04-07T05:07:08;4.03;;;2.93;;
13672;SDS011;6909;52.202;9.876;2023-04-07T05:09:36;5.77;;;3.53;;
13672;SDS011;6909;52.202;9.876;2023-04-07T05:12:03;8.67;;;3.57;;
13672;SDS011;6909;52.202;9.876;2023-04-07T05:14:30;6.07;;;3.53;;
13672;SDS011;6909;52.202;9.876;2023-04-07T05:16:56;4.13;;;2.37;;
13672;SDS011;6909;52.202;9.876;2023-04-07T05:19:24;5.97;;;3.47;;
13672;SDS011;6909;52.202;9.876;2023-04-07T05:21:53;5.90;;;3.17;;
13672;SDS011;6909;52.202;9.876;2023-04-07T05:24:20;4.83;;;3.10;;
13672;SDS011;6909;52.202;9.876;2023-04-07T05:26:48;4.67;;;2.80;;
13672;SDS011;6909;52.202;9.876;2023-04-07T05:29:14;3.67;;;2.93;;
13672;SDS011;6909;52.202;9.876;2023-04-07T05:31:41;4.70;;;3.33;;
13672;SDS011;6909;52.202;9.876;2023-04-07T05:34:08;3.13;;;2.33;;
13672;SDS011;6909;52.202;9.876;2023-04-07T05:36:34;3.87;;;3.03;;
13672;SDS011;6909;52.202;9.876;2023-04-07T05:39:01;3.93;;;3.50;;
13672;SDS011;6909;52.202;9.876;2023-04-07T05:41:28;3.23;;;2.87;;
13672;SDS011;6909;52.202;9.876;2023-04-07T05:43:56;5.07;;;4.53;;
13672;SDS011;6909;52.202;9.876;2023-04-07T05:46:23;4.90;;;3.70;;
13672;SDS011;6909;52.202;9.876;2023-04-07T05:48:49;5.77;;;3.90;;
13672;SDS011;6909;52.202;9.876;2023-04-07T05:51:16;4.83;;;3.83;;
13672;SDS011;6909;52.202;9.876;2023-04-07T05:53:43;9.07;;;4.20;;
13672;SDS011;6909;52.202;9.876;2023-04-07T05:56:09;6.13;;;4.17;;
13672;SDS011;6909;52.202;9.876;2023-04-07T05:58:36;5.53;;;3.83;;
13672;SDS011;6909;52.202;9.876;2023-04-07T06:01:04;6.87;;;4.73;;
13672;SDS011;6909;52.202;9.876;2023-04-07T06:03:31;6.40;;;4.23;;
13672;SDS011;6909;52.202;9.876;2023-04-07T06:05:57;7.53;;;4.90;;
13672;SDS011;6909;52.202;9.876;2023-04-07T06:08:24;6.33;;;4.60;;
13672;SDS011;6909;52.202;9.876;2023-04-07T06:10:51;8.90;;;4.63;;
13672;SDS011;6909;52.202;9.876;2023-04-07T06:13:17;7.13;;;4.70;;
13672;SDS011;6909;52.202;9.876;2023-04-07T06:15:44;6.13;;;4.17;;
13672;SDS011;6909;52.202;9.876;2023-04-07T06:18:12;7.57;;;4.70;;
13672;SDS011;6909;52.202;9.876;2023-04-07T06:20:39;5.10;;;4.27;;
13672;SDS011;6909;52.202;9.876;2023-04-07T06:23:06;5.90;;;4.37;;
13672;SDS011;6909;52.202;9.876;2023-04-07T06:25:32;6.17;;;4.87;;
13672;SDS011;6909;52.202;9.876;2023-04-07T06:27:59;5.93;;;4.27;;
13672;SDS011;6909;52.202;9.876;2023-04-07T06:30:26;6.23;;;4.73;;
13672;SDS011;6909;52.202;9.876;2023-04-07T06:32:53;6.17;;;4.57;;
13672;SDS011;6909;52.202;9.876;2023-04-07T06:35:20;7.13;;;4.73;;
13672;SDS011;6909;52.202;9.876;2023-04-07T06:37:50;6.87;;;4.40;;
13672;SDS011;6909;52.202;9.876;2023-04-07T06:40:17;8.00;;;4.90;;
13672;SDS011;6909;52.202;9.876;2023-04-07T06:42:44;6.20;;;5.30;;
13672;SDS011;6909;52.202;9.876;2023-04-07T06:45:10;5.90;;;4.57;;
13672;SDS011;6909;52.202;9.876;2023-04-07T06:47:37;6.87;;;4.60;;
13672;SDS011;6909;52.202;9.876;2023-04-07T06:50:04;7.73;;;5.23;;
13672;SDS011;6909;52.202;9.876;2023-04-07T06:52:33;8.47;;;5.70;;
13672;SDS011;6909;52.202;9.876;2023-04-07T06:54:59;7.87;;;4.63;;
13672;SDS011;6909;52.202;9.876;2023-04-07T06:57:26;7.37;;;5.13;;
13672;SDS011;6909;52.202;9.876;2023-04-07T06:59:52;8.40;;;5.17;;
13672;SDS011;6909;52.202;9.876;2023-04-07T07:02:19;6.27;;;4.97;;
13672;SDS011;6909;52.202;9.876;2023-04-07T07:04:46;6.60;;;5.33;;
13672;SDS011;6909;52.202;9.876;2023-04-07T07:07:12;7.33;;;5.47;;
13672;SDS011;6909;52.202;9.876;2023-04-07T07:09:40;7.90;;;5.37;;
13672;SDS011;6909;52.202;9.876;2023-04-07T07:12:07;7.20;;;5.37;;
13672;SDS011;6909;52.202;9.876;2023-04-07T07:14:33;5.93;;;4.90;;
13672;SDS011;6909;52.202;9.876;2023-04-07T07:17:00;7.87;;;5.30;;
13672;SDS011;6909;52.202;9.876;2023-04-07T07:19:27;7.03;;;5.13;;
13672;SDS011;6909;52.202;9.876;2023-04-07T07:21:54;5.53;;;4.70;;
13672;SDS011;6909;52.202;9.876;2023-04-07T07:24:20;6.63;;;4.87;;
13672;SDS011;6909;52.202;9.876;2023-04-07T07:26:48;6.53;;;4.47;;
13672;SDS011;6909;52.202;9.876;2023-04-07T07:29:15;7.40;;;5.50;;
13672;SDS011;6909;52.202;9.876;2023-04-07T07:31:42;8.23;;;5.83;;
13672;SDS011;6909;52.202;9.876;2023-04-07T07:34:08;8.73;;;5.47;;
13672;SDS011;6909;52.202;9.876;2023-04-07T07:36:35;8.60;;;5.43;;
13672;SDS011;6909;52.202;9.876;2023-04-07T07:39:01;7.70;;;5.37;;
13672;SDS011;6909;52.202;9.876;2023-04-07T07:41:29;6.70;;;4.97;;
13672;SDS011;6909;52.202;9.876;2023-04-07T07:43:57;5.87;;;4.50;;
13672;SDS011;6909;52.202;9.876;2023-04-07T07:46:24;6.00;;;5.00;;
13672;SDS011;6909;52.202;9.876;2023-04-07T07:48:51;5.17;;;4.60;;
13672;SDS011;6909;52.202;9.876;2023-04-07T07:51:18;6.17;;;5.57;;
13672;SDS011;6909;52.202;9.876;2023-04-07T07:53:45;6.72;;;5.07;;
13672;SDS011;6909;52.202;9.876;2023-04-07T07:56:11;6.88;;;4.82;;
13672;SDS011;6909;52.202;9.876;2023-04-07T07:58:38;4.73;;;4.33;;
13672;SDS011;6909;52.202;9.876;2023-04-07T08:01:06;6.47;;;5.47;;
13672;SDS011;6909;52.202;9.876;2023-04-07T08:03:33;6.57;;;5.10;;
13672;SDS011;6909;52.202;9.876;2023-04-07T08:05:59;5.93;;;4.67;;
13672;SDS011;6909;52.202;9.876;2023-04-07T08:08:27;6.57;;;4.67;;
13672;SDS011;6909;52.202;9.876;2023-04-07T08:10:53;7.73;;;4.57;;
13672;SDS011;6909;52.202;9.876;2023-04-07T08:13:20;6.07;;;4.20;;
13672;SDS011;6909;52.202;9.876;2023-04-07T08:15:47;6.23;;;5.00;;
13672;SDS011;6909;52.202;9.876;2023-04-07T08:18:15;6.27;;;4.50;;
13672;SDS011;6909;52.202;9.876;2023-04-07T08:20:41;5.43;;;4.73;;
13672;SDS011;6909;52.202;9.876;2023-04-07T08:23:08;7.80;;;5.27;;
13672;SDS011;6909;52.202;9.876;2023-04-07T08:25:35;9.47;;;5.37;;
13672;SDS011;6909;52.202;9.876;2023-04-07T08:28:01;7.20;;;5.53;;
13672;SDS011;6909;52.202;9.876;2023-04-07T08:30:28;7.83;;;5.20;;
13672;SDS011;6909;52.202;9.876;2023-04-07T08:32:55;6.47;;;4.93;;
13672;SDS011;6909;52.202;9.876;2023-04-07T08:35:23;6.73;;;4.50;;
13672;SDS011;6909;52.202;9.876;2023-04-07T08:37:50;6.53;;;4.97;;
13672;SDS011;6909;52.202;9.876;2023-04-07T08:40:19;6.03;;;5.13;;
13672;SDS011;6909;52.202;9.876;2023-04-07T08:42:46;7.10;;;5.20;;
13672;SDS011;6909;52.202;9.876;2023-04-07T08:45:15;5.43;;;4.43;;
13672;SDS011;6909;52.202;9.876;2023-04-07T08:47:42;6.30;;;4.70;;
13672;SDS011;6909;52.202;9.876;2023-04-07T08:50:12;4.77;;;4.37;;
13672;SDS011;6909;52.202;9.876;2023-04-07T08:52:44;7.67;;;4.67;;
13672;SDS011;6909;52.202;9.876;2023-04-07T08:55:14;6.13;;;4.63;;
13672;SDS011;6909;52.202;9.876;2023-04-07T08:57:41;5.50;;;4.07;;
13672;SDS011;6909;52.202;9.876;2023-04-07T09:00:09;5.33;;;4.60;;
13672;SDS011;6909;52.202;9.876;2023-04-07T09:02:37;4.87;;;4.17;;
13672;SDS011;6909;52.202;9.876;2023-04-07T09:05:08;5.27;;;4.60;;
13672;SDS011;6909;52.202;9.876;2023-04-07T09:07:35;5.60;;;3.53;;
13672;SDS011;6909;52.202;9.876;2023-04-07T09:10:06;4.43;;;3.63;;
13672;SDS011;6909;52.202;9.876;2023-04-07T09:12:33;7.73;;;4.23;;
13672;SDS011;6909;52.202;9.876;2023-04-07T09:15:00;6.47;;;4.20;;
13672;SDS011;6909;52.202;9.876;2023-04-07T09:17:27;4.23;;;3.03;;
13672;SDS011;6909;52.202;9.876;2023-04-07T09:19:55;4.67;;;3.40;;
13672;SDS011;6909;52.202;9.876;2023-04-07T09:22:33;4.53;;;3.13;;
13672;SDS011;6909;52.202;9.876;2023-04-07T09:25:09;7.80;;;2.90;;
13672;SDS011;6909;52.202;9.876;2023-04-07T09:27:40;5.30;;;2.97;;
13672;SDS011;6909;52.202;9.876;2023-04-07T09:30:18;5.20;;;3.50;;
13672;SDS011;6909;52.202;9.876;2023-04-07T09:32:45;7.60;;;3.97;;
13672;SDS011;6909;52.202;9.876;2023-04-07T09:35:12;4.47;;;3.33;;
13672;SDS011;6909;52.202;9.876;2023-04-07T09:37:39;5.23;;;3.10;;
13672;SDS011;6909;52.202;9.876;2023-04-07T09:40:07;4.37;;;3.17;;
13672;SDS011;6909;52.202;9.876;2023-04-07T09:42:35;3.53;;;2.73;;
13672;SDS011;6909;52.202;9.876;2023-04-07T09:45:10;4.90;;;3.57;;
13672;SDS011;6909;52.202;9.876;2023-04-07T09:47:37;3.47;;;2.97;;
13672;SDS011;6909;52.202;9.876;2023-04-07T09:50:04;3.87;;;2.87;;
13672;SDS011;6909;52.202;9.876;2023-04-07T09:52:47;3.37;;;2.83;;
13672;SDS011;6909;52.202;9.876;2023-04-07T09:55:14;3.80;;;2.60;;
13672;SDS011;6909;52.202;9.876;2023-04-07T09:57:43;5.07;;;2.97;;
13672;SDS011;6909;52.202;9.876;2023-04-07T10:00:11;5.77;;;3.13;;
13672;SDS011;6909;52.202;9.876;2023-04-07T10:02:38;5.20;;;3.63;;
13672;SDS011;6909;52.202;9.876;2023-04-07T10:05:05;4.53;;;3.30;;
13672;SDS011;6909;52.202;9.876;2023-04-07T10:07:33;2.57;;;2.27;;
13672;SDS011;6909;52.202;9.876;2023-04-07T10:10:00;3.57;;;2.93;;
13672;SDS011;6909;52.202;9.876;2023-04-07T10:12:28;6.50;;;3.23;;
13672;SDS011;6909;52.202;9.876;2023-04-07T10:14:57;3.47;;;2.90;;
13672;SDS011;6909;52.202;9.876;2023-04-07T10:17:25;5.70;;;3.07;;
13672;SDS011;6909;52.202;9.876;2023-04-07T10:19:54;4.47;;;2.80;;
13672;SDS011;6909;52.202;9.876;2023-04-07T10:22:23;3.73;;;3.37;;
13672;SDS011;6909;52.202;9.876;2023-04-07T10:24:53;4.50;;;3.13;;
13672;SDS011;6909;52.202;9.876;2023-04-07T10:27:26;3.93;;;2.80;;
13672;SDS011;6909;52.202;9.876;2023-04-07T10:29:58;4.67;;;3.03;;
13672;SDS011;6909;52.202;9.876;2023-04-07T10:32:26;4.20;;;2.80;;
13672;SDS011;6909;52.202;9.876;2023-04-07T10:34:57;4.27;;;2.70;;
13672;SDS011;6909;52.202;9.876;2023-04-07T10:37:25;4.37;;;2.63;;
13672;SDS011;6909;52.202;9.876;2023-04-07T10:42:52;4.43;;;3.20;;
13672;SDS011;6909;52.202;9.876;2023-04-07T10:45:21;5.33;;;3.00;;
13672;SDS011;6909;52.202;9.876;2023-04-07T10:48:18;5.43;;;3.27;;
13672;SDS011;6909;52.202;9.876;2023-04-07T10:50:46;4.83;;;2.50;;
13672;SDS011;6909;52.202;9.876;2023-04-07T10:59:39;5.53;;;3.20;;
13672;SDS011;6909;52.202;9.876;2023-04-07T11:02:31;3.63;;;2.73;;
13672;SDS011;6909;52.202;9.876;2023-04-07T11:04:58;5.43;;;2.67;;
13672;SDS011;6909;52.202;9.876;2023-04-07T11:07:45;5.97;;;3.57;;
13672;SDS011;6909;52.202;9.876;2023-04-07T11:10:14;4.67;;;2.97;;
13672;SDS011;6909;52.202;9.876;2023-04-07T11:12:42;5.23;;;3.20;;
13672;SDS011;6909;52.202;9.876;2023-04-07T11:15:16;5.23;;;3.17;;
13672;SDS011;6909;52.202;9.876;2023-04-07T11:17:45;4.73;;;2.67;;
13672;SDS011;6909;52.202;9.876;2023-04-07T11:20:11;5.77;;;3.10;;
13672;SDS011;6909;52.202;9.876;2023-04-07T11:22:38;4.47;;;3.20;;
13672;SDS011;6909;52.202;9.876;2023-04-07T11:25:19;4.93;;;3.27;;
13672;SDS011;6909;52.202;9.876;2023-04-07T11:27:47;4.77;;;3.57;;
13672;SDS011;6909;52.202;9.876;2023-04-07T11:30:14;5.27;;;3.23;;
13672;SDS011;6909;52.202;9.876;2023-04-07T11:32:47;4.37;;;3.10;;
13672;SDS011;6909;52.202;9.876;2023-04-07T11:35:15;6.97;;;4.20;;
13672;SDS011;6909;52.202;9.876;2023-04-07T11:37:42;4.17;;;3.40;;
13672;SDS011;6909;52.202;9.876;2023-04-07T11:40:09;5.87;;;3.73;;
13672;SDS011;6909;52.202;9.876;2023-04-07T11:42:38;8.13;;;3.70;;
13672;SDS011;6909;52.202;9.876;2023-04-07T11:45:06;3.93;;;2.83;;
13672;SDS011;6909;52.202;9.876;2023-04-07T11:47:41;6.97;;;3.00;;
13672;SDS011;6909;52.202;9.876;2023-04-07T11:50:10;4.93;;;3.33;;
13672;SDS011;6909;52.202;9.876;2023-04-07T11:52:40;3.93;;;2.80;;
13672;SDS011;6909;52.202;9.876;2023-04-07T11:55:15;4.30;;;2.80;;
13672;SDS011;6909;52.202;9.876;2023-04-07T11:57:43;5.60;;;3.57;;
13672;SDS011;6909;52.202;9.876;2023-04-07T12:00:10;23.07;;;3.90;;
13672;SDS011;6909;52.202;9.876;2023-04-07T12:02:38;8.27;;;3.90;;
13672;SDS011;6909;52.202;9.876;2023-04-07T12:05:05;5.93;;;3.47;;
13672;SDS011;6909;52.202;9.876;2023-04-07T12:07:35;3.63;;;2.90;;
13672;SDS011;6909;52.202;9.876;2023-04-07T12:10:18;4.63;;;3.03;;
13672;SDS011;6909;52.202;9.876;2023-04-07T12:12:46;4.87;;;3.50;;
13672;SDS011;6909;52.202;9.876;2023-04-07T12:15:13;7.63;;;3.23;;
13672;SDS011;6909;52.202;9.876;2023-04-07T12:17:43;6.13;;;3.13;;
13672;SDS011;6909;52.202;9.876;2023-04-07T12:20:10;5.43;;;2.87;;
13672;SDS011;6909;52.202;9.876;2023-04-07T12:22:38;4.27;;;3.33;;
13672;SDS011;6909;52.202;9.876;2023-04-07T12:25:06;5.83;;;4.33;;
13672;SDS011;6909;52.202;9.876;2023-04-07T12:27:33;6.80;;;4.00;;
13672;SDS011;6909;52.202;9.876;2023-04-07T12:30:00;4.97;;;3.37;;
13672;SDS011;6909;52.202;9.876;2023-04-07T12:32:26;5.37;;;3.40;;
13672;SDS011;6909;52.202;9.876;2023-04-07T12:34:54;4.97;;;3.30;;
13672;SDS011;6909;52.202;9.876;2023-04-07T12:37:20;5.47;;;3.90;;
13672;SDS011;6909;52.202;9.876;2023-04-07T12:39:49;5.13;;;3.80;;
13672;SDS011;6909;52.202;9.876;2023-04-07T12:42:15;4.60;;;3.40;;
13672;SDS011;6909;52.202;9.876;2023-04-07T12:44:42;6.33;;;4.10;;
13672;SDS011;6909;52.202;9.876;2023-04-07T12:47:09;5.70;;;3.43;;
13672;SDS011;6909;52.202;9.876;2023-04-07T12:49:36;6.80;;;4.00;;
13672;SDS011;6909;52.202;9.876;2023-04-07T12:52:03;7.63;;;3.67;;
13672;SDS011;6909;52.202;9.876;2023-04-07T12:54:30;5.23;;;3.60;;
13672;SDS011;6909;52.202;9.876;2023-04-07T12:56:58;5.23;;;3.20;;
13672;SDS011;6909;52.202;9.876;2023-04-07T12:59:25;6.67;;;4.20;;
13672;SDS011;6909;52.202;9.876;2023-04-07T13:01:53;7.30;;;3.80;;
13672;SDS011;6909;52.202;9.876;2023-04-07T13:04:20;6.43;;;4.00;;
13672;SDS011;6909;52.202;9.876;2023-04-07T13:06:48;6.23;;;3.40;;
13672;SDS011;6909;52.202;9.876;2023-04-07T13:09:15;7.20;;;3.43;;
13672;SDS011;6909;52.202;9.876;2023-04-07T13:11:41;6.87;;;3.83;;
13672;SDS011;6909;52.202;9.876;2023-04-07T13:14:11;4.50;;;3.03;;
13672;SDS011;6909;52.202;9.876;2023-04-07T13:16:37;5.40;;;3.40;;
13672;SDS011;6909;52.202;9.876;2023-04-07T13:19:04;6.43;;;3.60;;
13672;SDS011;6909;52.202;9.876;2023-04-07T13:21:30;5.40;;;3.40;;
13672;SDS011;6909;52.202;9.876;2023-04-07T13:23:57;4.73;;;3.20;;
13672;SDS011;6909;52.202;9.876;2023-04-07T13:26:24;5.43;;;3.27;;
13672;SDS011;6909;52.202;9.876;2023-04-07T13:28:52;4.73;;;3.03;;
13672;SDS011;6909;52.202;9.876;2023-04-07T13:31:20;8.03;;;3.20;;
13672;SDS011;6909;52.202;9.876;2023-04-07T13:33:47;5.13;;;3.47;;
13672;SDS011;6909;52.202;9.876;2023-04-07T13:36:14;4.70;;;3.20;;
13672;SDS011;6909;52.202;9.876;2023-04-07T13:38:41;4.93;;;3.00;;
13672;SDS011;6909;52.202;9.876;2023-04-07T13:41:08;4.30;;;3.17;;
13672;SDS011;6909;52.202;9.876;2023-04-07T13:43:34;3.90;;;3.03;;
13672;SDS011;6909;52.202;9.876;2023-04-07T13:46:01;5.47;;;2.67;;
13672;SDS011;6909;52.202;9.876;2023-04-07T13:48:29;5.07;;;3.20;;
13672;SDS011;6909;52.202;9.876;2023-04-07T13:50:56;3.93;;;2.93;;
13672;SDS011;6909;52.202;9.876;2023-04-07T13:53:23;4.53;;;3.13;;
13672;SDS011;6909;52.202;9.876;2023-04-07T13:55:49;5.20;;;2.67;;
13672;SDS011;6909;52.202;9.876;2023-04-07T13:58:16;4.10;;;2.50;;
13672;SDS011;6909;52.202;9.876;2023-04-07T14:00:43;5.30;;;2.90;;
13672;SDS011;6909;52.202;9.876;2023-04-07T14:03:09;3.87;;;3.00;;
13672;SDS011;6909;52.202;9.876;2023-04-07T14:05:37;6.20;;;3.60;;
13672;SDS011;6909;52.202;9.876;2023-04-07T14:08:04;3.67;;;2.83;;
13672;SDS011;6909;52.202;9.876;2023-04-07T14:10:31;4.87;;;2.90;;
13672;SDS011;6909;52.202;9.876;2023-04-07T14:12:58;4.70;;;2.83;;
13672;SDS011;6909;52.202;9.876;2023-04-07T14:15:25;3.60;;;2.67;;
13672;SDS011;6909;52.202;9.876;2023-04-07T14:17:52;3.33;;;2.50;;
13672;SDS011;6909;52.202;9.876;2023-04-07T14:20:19;4.13;;;2.37;;
13672;SDS011;6909;52.202;9.876;2023-04-07T14:22:47;4.10;;;2.20;;
13672;SDS011;6909;52.202;9.876;2023-04-07T14:25:14;4.90;;;2.83;;
13672;SDS011;6909;52.202;9.876;2023-04-07T14:27:40;3.87;;;2.30;;
13672;SDS011;6909;52.202;9.876;2023-04-07T14:30:07;4.80;;;3.17;;
13672;SDS011;6909;52.202;9.876;2023-04-07T14:32:35;3.13;;;2.27;;
13672;SDS011;6909;52.202;9.876;2023-04-07T14:35:01;3.70;;;2.43;;
13672;SDS011;6909;52.202;9.876;2023-04-07T14:37:28;3.17;;;2.53;;
13672;SDS011;6909;52.202;9.876;2023-04-07T14:39:56;2.83;;;2.10;;
13672;SDS011;6909;52.202;9.876;2023-04-07T14:42:24;5.17;;;2.43;;
13672;SDS011;6909;52.202;9.876;2023-04-07T14:44:50;3.33;;;1.97;;
13672;SDS011;6909;52.202;9.876;2023-04-07T14:47:17;3.70;;;2.83;;
13672;SDS011;6909;52.202;9.876;2023-04-07T14:49:44;4.43;;;2.27;;
13672;SDS011;6909;52.202;9.876;2023-04-07T14:52:10;3.47;;;2.10;;
13672;SDS011;6909;52.202;9.876;2023-04-07T14:54:37;3.10;;;2.07;;
13672;SDS011;6909;52.202;9.876;2023-04-07T14:57:05;2.87;;;2.03;;
13672;SDS011;6909;52.202;9.876;2023-04-07T14:59:32;4.73;;;2.60;;
13672;SDS011;6909;52.202;9.876;2023-04-07T15:01:59;3.50;;;2.43;;
13672;SDS011;6909;52.202;9.876;2023-04-07T15:04:26;3.53;;;2.60;;
13672;SDS011;6909;52.202;9.876;2023-04-07T15:06:52;3.30;;;2.20;;
13672;SDS011;6909;52.202;9.876;2023-04-07T15:09:20;3.90;;;2.60;;
13672;SDS011;6909;52.202;9.876;2023-04-07T15:11:46;2.83;;;2.10;;
13672;SDS011;6909;52.202;9.876;2023-04-07T15:14:14;2.87;;;2.17;;